Haviland, Ohio
Current Conditions -  °F | °C
As of 6:53 PM on Friday 21 Nov 2014 (Local Time) from KDFI Reporting Station
Clear Clear  
Wind Chill: -5°   Ceiling: Unl
Heat Index: -5°   Visibility: 10mi
Dew Point: -11°   Wind: 3mph
Humidity: 63%   Direction: 150°SSE
Pressure: 30.43"   Gusts: NA
Location:  41.02°N, 84.58°W
Report Text: KDFI 212353Z AUTO 15003KT 10SM CLR M05/M11 A3043 RMK AO2 SLP318 T10501111 11022 21050 58007
Loading
Personal Weather Stations






























Interactive Weather Map New forecast layout! Learn more

10-Day Weather Forecast

Advertisements
Track Severe Weather on mobile